sensor_id;sensor_type;location;lat;lon;timestamp;P1;durP1;ratioP1;P2;durP2;ratioP2
18997;SDS011;9632;51.018;4.284;2022-07-23T00:01:01;7.13;;;5.20;;
18997;SDS011;9632;51.018;4.284;2022-07-23T00:03:26;9.20;;;5.25;;
18997;SDS011;9632;51.018;4.284;2022-07-23T00:05:52;8.10;;;4.90;;
18997;SDS011;9632;51.018;4.284;2022-07-23T00:08:18;8.88;;;5.45;;
18997;SDS011;9632;51.018;4.284;2022-07-23T00:10:43;7.70;;;5.63;;
18997;SDS011;9632;51.018;4.284;2022-07-23T00:13:09;9.90;;;5.65;;
18997;SDS011;9632;51.018;4.284;2022-07-23T00:15:35;8.43;;;5.75;;
18997;SDS011;9632;51.018;4.284;2022-07-23T00:18:01;8.20;;;5.95;;
18997;SDS011;9632;51.018;4.284;2022-07-23T00:20:27;8.35;;;5.95;;
18997;SDS011;9632;51.018;4.284;2022-07-23T00:22:53;9.82;;;5.90;;
18997;SDS011;9632;51.018;4.284;2022-07-23T00:25:20;9.55;;;6.05;;
18997;SDS011;9632;51.018;4.284;2022-07-23T00:27:47;9.35;;;5.70;;
18997;SDS011;9632;51.018;4.284;2022-07-23T00:30:13;8.18;;;5.90;;
18997;SDS011;9632;51.018;4.284;2022-07-23T00:32:45;9.30;;;6.03;;
18997;SDS011;9632;51.018;4.284;2022-07-23T00:35:25;9.18;;;5.72;;
18997;SDS011;9632;51.018;4.284;2022-07-23T00:37:52;9.35;;;5.90;;
18997;SDS011;9632;51.018;4.284;2022-07-23T00:40:18;9.52;;;5.53;;
18997;SDS011;9632;51.018;4.284;2022-07-23T00:42:43;12.13;;;5.65;;
18997;SDS011;9632;51.018;4.284;2022-07-23T00:45:09;8.20;;;5.65;;
18997;SDS011;9632;51.018;4.284;2022-07-23T00:47:35;8.90;;;5.75;;
18997;SDS011;9632;51.018;4.284;2022-07-23T00:50:02;7.15;;;5.30;;
18997;SDS011;9632;51.018;4.284;2022-07-23T00:52:29;9.10;;;5.50;;
18997;SDS011;9632;51.018;4.284;2022-07-23T00:54:54;8.20;;;5.40;;
18997;SDS011;9632;51.018;4.284;2022-07-23T00:57:20;7.40;;;4.90;;
18997;SDS011;9632;51.018;4.284;2022-07-23T00:59:46;9.07;;;5.70;;
18997;SDS011;9632;51.018;4.284;2022-07-23T01:02:12;8.77;;;5.07;;
18997;SDS011;9632;51.018;4.284;2022-07-23T01:04:37;8.40;;;5.47;;
18997;SDS011;9632;51.018;4.284;2022-07-23T01:07:03;8.57;;;4.97;;
18997;SDS011;9632;51.018;4.284;2022-07-23T01:09:29;9.32;;;4.68;;
18997;SDS011;9632;51.018;4.284;2022-07-23T01:11:56;8.93;;;5.00;;
18997;SDS011;9632;51.018;4.284;2022-07-23T01:14:23;8.40;;;5.25;;
18997;SDS011;9632;51.018;4.284;2022-07-23T01:16:49;7.05;;;4.68;;
18997;SDS011;9632;51.018;4.284;2022-07-23T01:19:15;7.10;;;4.95;;
18997;SDS011;9632;51.018;4.284;2022-07-23T01:21:46;6.25;;;4.90;;
18997;SDS011;9632;51.018;4.284;2022-07-23T01:24:14;6.88;;;4.72;;
18997;SDS011;9632;51.018;4.284;2022-07-23T01:26:41;7.50;;;5.03;;
18997;SDS011;9632;51.018;4.284;2022-07-23T01:29:08;7.35;;;4.93;;
18997;SDS011;9632;51.018;4.284;2022-07-23T01:31:34;8.10;;;5.38;;
18997;SDS011;9632;51.018;4.284;2022-07-23T01:34:00;8.73;;;4.97;;
18997;SDS011;9632;51.018;4.284;2022-07-23T01:36:26;7.97;;;5.10;;
18997;SDS011;9632;51.018;4.284;2022-07-23T01:38:51;6.47;;;4.60;;
18997;SDS011;9632;51.018;4.284;2022-07-23T01:41:17;7.57;;;5.22;;
18997;SDS011;9632;51.018;4.284;2022-07-23T01:43:43;8.98;;;4.85;;
18997;SDS011;9632;51.018;4.284;2022-07-23T01:46:09;9.80;;;5.55;;
18997;SDS011;9632;51.018;4.284;2022-07-23T01:48:35;8.82;;;5.53;;
18997;SDS011;9632;51.018;4.284;2022-07-23T01:51:01;7.47;;;4.97;;
18997;SDS011;9632;51.018;4.284;2022-07-23T01:53:27;9.38;;;5.35;;
18997;SDS011;9632;51.018;4.284;2022-07-23T01:55:52;7.25;;;5.53;;
18997;SDS011;9632;51.018;4.284;2022-07-23T01:58:18;9.90;;;5.88;;
18997;SDS011;9632;51.018;4.284;2022-07-23T02:00:44;11.73;;;5.30;;
18997;SDS011;9632;51.018;4.284;2022-07-23T02:03:09;7.68;;;4.55;;
18997;SDS011;9632;51.018;4.284;2022-07-23T02:05:35;6.35;;;4.68;;
18997;SDS011;9632;51.018;4.284;2022-07-23T02:08:01;8.05;;;4.80;;
18997;SDS011;9632;51.018;4.284;2022-07-23T02:10:27;7.18;;;4.60;;
18997;SDS011;9632;51.018;4.284;2022-07-23T02:12:53;9.38;;;4.90;;
18997;SDS011;9632;51.018;4.284;2022-07-23T02:15:18;7.43;;;4.75;;
18997;SDS011;9632;51.018;4.284;2022-07-23T02:17:44;7.45;;;4.50;;
18997;SDS011;9632;51.018;4.284;2022-07-23T02:20:11;6.80;;;4.50;;
18997;SDS011;9632;51.018;4.284;2022-07-23T02:22:36;6.07;;;3.95;;
18997;SDS011;9632;51.018;4.284;2022-07-23T02:25:03;7.07;;;4.20;;
18997;SDS011;9632;51.018;4.284;2022-07-23T02:27:30;5.93;;;4.30;;
18997;SDS011;9632;51.018;4.284;2022-07-23T02:29:56;6.13;;;4.10;;
18997;SDS011;9632;51.018;4.284;2022-07-23T02:32:22;5.20;;;4.03;;
18997;SDS011;9632;51.018;4.284;2022-07-23T02:34:48;8.27;;;4.38;;
18997;SDS011;9632;51.018;4.284;2022-07-23T02:37:14;7.05;;;4.90;;
18997;SDS011;9632;51.018;4.284;2022-07-23T02:39:40;7.55;;;4.80;;
18997;SDS011;9632;51.018;4.284;2022-07-23T02:42:06;6.70;;;4.60;;
18997;SDS011;9632;51.018;4.284;2022-07-23T02:44:32;9.57;;;4.70;;
18997;SDS011;9632;51.018;4.284;2022-07-23T02:46:58;8.10;;;4.50;;
18997;SDS011;9632;51.018;4.284;2022-07-23T02:49:23;5.65;;;4.25;;
18997;SDS011;9632;51.018;4.284;2022-07-23T02:51:49;6.43;;;3.95;;
18997;SDS011;9632;51.018;4.284;2022-07-23T02:54:15;6.85;;;4.13;;
18997;SDS011;9632;51.018;4.284;2022-07-23T02:56:41;7.25;;;4.53;;
18997;SDS011;9632;51.018;4.284;2022-07-23T02:59:06;7.90;;;3.95;;
18997;SDS011;9632;51.018;4.284;2022-07-23T03:01:32;5.80;;;3.72;;
18997;SDS011;9632;51.018;4.284;2022-07-23T03:03:58;8.13;;;4.20;;
18997;SDS011;9632;51.018;4.284;2022-07-23T03:06:23;6.60;;;4.28;;
18997;SDS011;9632;51.018;4.284;2022-07-23T03:08:49;6.85;;;4.53;;
18997;SDS011;9632;51.018;4.284;2022-07-23T03:11:15;7.72;;;4.05;;
18997;SDS011;9632;51.018;4.284;2022-07-23T03:13:40;7.78;;;4.40;;
18997;SDS011;9632;51.018;4.284;2022-07-23T03:16:06;6.43;;;4.70;;
18997;SDS011;9632;51.018;4.284;2022-07-23T03:18:32;7.65;;;4.75;;
18997;SDS011;9632;51.018;4.284;2022-07-23T03:20:58;8.95;;;5.00;;
18997;SDS011;9632;51.018;4.284;2022-07-23T03:23:24;7.72;;;4.50;;
18997;SDS011;9632;51.018;4.284;2022-07-23T03:25:50;5.20;;;3.90;;
18997;SDS011;9632;51.018;4.284;2022-07-23T03:28:17;5.70;;;3.83;;
18997;SDS011;9632;51.018;4.284;2022-07-23T03:30:43;4.80;;;3.55;;
18997;SDS011;9632;51.018;4.284;2022-07-23T03:33:12;7.28;;;4.40;;
18997;SDS011;9632;51.018;4.284;2022-07-23T03:35:39;7.45;;;4.30;;
18997;SDS011;9632;51.018;4.284;2022-07-23T03:38:05;5.40;;;4.22;;
18997;SDS011;9632;51.018;4.284;2022-07-23T03:40:31;7.20;;;4.38;;
18997;SDS011;9632;51.018;4.284;2022-07-23T03:42:57;5.60;;;3.90;;
18997;SDS011;9632;51.018;4.284;2022-07-23T03:45:22;5.97;;;4.22;;
18997;SDS011;9632;51.018;4.284;2022-07-23T03:47:48;5.82;;;4.18;;
18997;SDS011;9632;51.018;4.284;2022-07-23T03:50:13;6.65;;;3.80;;
18997;SDS011;9632;51.018;4.284;2022-07-23T03:52:39;8.07;;;4.20;;
18997;SDS011;9632;51.018;4.284;2022-07-23T03:55:05;6.78;;;3.95;;
18997;SDS011;9632;51.018;4.284;2022-07-23T03:57:31;6.15;;;3.85;;
18997;SDS011;9632;51.018;4.284;2022-07-23T03:59:57;5.90;;;3.75;;
18997;SDS011;9632;51.018;4.284;2022-07-23T04:02:23;7.45;;;3.90;;
18997;SDS011;9632;51.018;4.284;2022-07-23T04:04:49;9.63;;;4.13;;
18997;SDS011;9632;51.018;4.284;2022-07-23T04:07:15;8.02;;;4.40;;
18997;SDS011;9632;51.018;4.284;2022-07-23T04:09:42;7.13;;;3.60;;
18997;SDS011;9632;51.018;4.284;2022-07-23T04:12:08;6.78;;;4.13;;
18997;SDS011;9632;51.018;4.284;2022-07-23T04:14:34;9.23;;;4.05;;
18997;SDS011;9632;51.018;4.284;2022-07-23T04:17:00;5.47;;;4.05;;
18997;SDS011;9632;51.018;4.284;2022-07-23T04:19:26;7.75;;;4.63;;
18997;SDS011;9632;51.018;4.284;2022-07-23T04:21:52;9.00;;;4.57;;
18997;SDS011;9632;51.018;4.284;2022-07-23T04:24:18;8.13;;;4.18;;
18997;SDS011;9632;51.018;4.284;2022-07-23T04:26:44;7.55;;;4.68;;
18997;SDS011;9632;51.018;4.284;2022-07-23T04:29:10;9.70;;;4.93;;
18997;SDS011;9632;51.018;4.284;2022-07-23T04:31:36;6.50;;;4.57;;
18997;SDS011;9632;51.018;4.284;2022-07-23T04:34:01;6.70;;;4.45;;
18997;SDS011;9632;51.018;4.284;2022-07-23T04:36:27;6.53;;;4.72;;
18997;SDS011;9632;51.018;4.284;2022-07-23T04:38:53;6.78;;;4.10;;
18997;SDS011;9632;51.018;4.284;2022-07-23T04:41:19;7.63;;;4.35;;
18997;SDS011;9632;51.018;4.284;2022-07-23T04:43:45;7.47;;;4.82;;
18997;SDS011;9632;51.018;4.284;2022-07-23T04:46:11;6.15;;;3.95;;
18997;SDS011;9632;51.018;4.284;2022-07-23T04:48:36;7.95;;;4.10;;
18997;SDS011;9632;51.018;4.284;2022-07-23T04:51:03;4.88;;;3.47;;
18997;SDS011;9632;51.018;4.284;2022-07-23T04:53:29;5.03;;;3.30;;
18997;SDS011;9632;51.018;4.284;2022-07-23T04:55:55;5.10;;;3.15;;
18997;SDS011;9632;51.018;4.284;2022-07-23T04:58:21;5.05;;;3.30;;
18997;SDS011;9632;51.018;4.284;2022-07-23T05:00:47;6.13;;;4.20;;
18997;SDS011;9632;51.018;4.284;2022-07-23T05:03:13;7.45;;;4.80;;
18997;SDS011;9632;51.018;4.284;2022-07-23T05:05:38;6.47;;;4.18;;
18997;SDS011;9632;51.018;4.284;2022-07-23T05:08:04;6.80;;;3.88;;
18997;SDS011;9632;51.018;4.284;2022-07-23T05:10:30;7.22;;;3.90;;
18997;SDS011;9632;51.018;4.284;2022-07-23T05:12:55;6.15;;;4.00;;
18997;SDS011;9632;51.018;4.284;2022-07-23T05:15:21;5.25;;;3.60;;
18997;SDS011;9632;51.018;4.284;2022-07-23T05:17:47;6.38;;;3.88;;
18997;SDS011;9632;51.018;4.284;2022-07-23T05:20:12;9.25;;;4.65;;
18997;SDS011;9632;51.018;4.284;2022-07-23T05:22:38;4.85;;;4.05;;
18997;SDS011;9632;51.018;4.284;2022-07-23T05:25:05;8.05;;;4.82;;
18997;SDS011;9632;51.018;4.284;2022-07-23T05:27:31;10.85;;;5.30;;
18997;SDS011;9632;51.018;4.284;2022-07-23T05:29:57;8.40;;;4.93;;
18997;SDS011;9632;51.018;4.284;2022-07-23T05:32:22;8.55;;;5.13;;
18997;SDS011;9632;51.018;4.284;2022-07-23T05:34:48;11.55;;;6.00;;
18997;SDS011;9632;51.018;4.284;2022-07-23T05:37:14;10.35;;;5.20;;
18997;SDS011;9632;51.018;4.284;2022-07-23T05:39:40;9.77;;;6.13;;
18997;SDS011;9632;51.018;4.284;2022-07-23T05:42:06;12.40;;;5.82;;
18997;SDS011;9632;51.018;4.284;2022-07-23T05:44:32;9.98;;;5.75;;
18997;SDS011;9632;51.018;4.284;2022-07-23T05:46:58;6.78;;;5.25;;
18997;SDS011;9632;51.018;4.284;2022-07-23T05:49:24;9.23;;;5.68;;
18997;SDS011;9632;51.018;4.284;2022-07-23T05:51:49;9.82;;;5.57;;
18997;SDS011;9632;51.018;4.284;2022-07-23T05:54:15;10.32;;;5.80;;
18997;SDS011;9632;51.018;4.284;2022-07-23T05:56:41;9.27;;;6.03;;
18997;SDS011;9632;51.018;4.284;2022-07-23T05:59:07;8.32;;;5.18;;
18997;SDS011;9632;51.018;4.284;2022-07-23T06:01:32;8.93;;;5.50;;
18997;SDS011;9632;51.018;4.284;2022-07-23T06:03:58;8.55;;;5.63;;
18997;SDS011;9632;51.018;4.284;2022-07-23T06:06:23;8.55;;;5.43;;
18997;SDS011;9632;51.018;4.284;2022-07-23T06:08:49;6.90;;;4.88;;
18997;SDS011;9632;51.018;4.284;2022-07-23T06:11:15;10.85;;;6.28;;
18997;SDS011;9632;51.018;4.284;2022-07-23T06:13:40;9.00;;;5.55;;
18997;SDS011;9632;51.018;4.284;2022-07-23T06:16:07;9.38;;;4.78;;
18997;SDS011;9632;51.018;4.284;2022-07-23T06:18:32;9.32;;;5.18;;
18997;SDS011;9632;51.018;4.284;2022-07-23T06:20:58;7.93;;;4.60;;
18997;SDS011;9632;51.018;4.284;2022-07-23T06:23:24;9.45;;;6.50;;
18997;SDS011;9632;51.018;4.284;2022-07-23T06:25:49;12.45;;;6.35;;
18997;SDS011;9632;51.018;4.284;2022-07-23T06:28:15;9.75;;;6.25;;
18997;SDS011;9632;51.018;4.284;2022-07-23T06:30:41;11.57;;;6.75;;
18997;SDS011;9632;51.018;4.284;2022-07-23T06:33:06;8.52;;;5.85;;
18997;SDS011;9632;51.018;4.284;2022-07-23T06:35:32;12.50;;;6.28;;
18997;SDS011;9632;51.018;4.284;2022-07-23T06:37:58;9.23;;;6.28;;
18997;SDS011;9632;51.018;4.284;2022-07-23T06:40:24;11.18;;;6.60;;
18997;SDS011;9632;51.018;4.284;2022-07-23T06:42:50;11.35;;;6.38;;
18997;SDS011;9632;51.018;4.284;2022-07-23T06:45:16;11.65;;;6.60;;
18997;SDS011;9632;51.018;4.284;2022-07-23T06:47:42;10.23;;;6.43;;
18997;SDS011;9632;51.018;4.284;2022-07-23T06:50:07;12.07;;;6.13;;
18997;SDS011;9632;51.018;4.284;2022-07-23T06:52:34;12.55;;;6.57;;
18997;SDS011;9632;51.018;4.284;2022-07-23T06:54:59;9.10;;;6.00;;
18997;SDS011;9632;51.018;4.284;2022-07-23T06:57:25;10.73;;;6.05;;
18997;SDS011;9632;51.018;4.284;2022-07-23T06:59:51;9.45;;;5.90;;
18997;SDS011;9632;51.018;4.284;2022-07-23T07:02:17;13.88;;;5.75;;
18997;SDS011;9632;51.018;4.284;2022-07-23T07:04:43;11.23;;;6.10;;
18997;SDS011;9632;51.018;4.284;2022-07-23T07:07:08;10.15;;;6.30;;
18997;SDS011;9632;51.018;4.284;2022-07-23T07:09:34;13.60;;;6.00;;
18997;SDS011;9632;51.018;4.284;2022-07-23T07:11:59;10.25;;;5.72;;
18997;SDS011;9632;51.018;4.284;2022-07-23T07:14:26;10.48;;;6.43;;
18997;SDS011;9632;51.018;4.284;2022-07-23T07:16:52;11.50;;;6.32;;
18997;SDS011;9632;51.018;4.284;2022-07-23T07:19:17;10.50;;;5.68;;
18997;SDS011;9632;51.018;4.284;2022-07-23T07:21:43;11.57;;;5.50;;
18997;SDS011;9632;51.018;4.284;2022-07-23T07:24:09;11.20;;;6.68;;
18997;SDS011;9632;51.018;4.284;2022-07-23T07:26:34;13.32;;;7.05;;
18997;SDS011;9632;51.018;4.284;2022-07-23T07:29:00;10.68;;;6.70;;
18997;SDS011;9632;51.018;4.284;2022-07-23T07:31:26;10.98;;;6.10;;
18997;SDS011;9632;51.018;4.284;2022-07-23T07:33:51;10.85;;;5.90;;
18997;SDS011;9632;51.018;4.284;2022-07-23T07:36:17;10.50;;;6.13;;
18997;SDS011;9632;51.018;4.284;2022-07-23T07:38:43;9.05;;;5.50;;
18997;SDS011;9632;51.018;4.284;2022-07-23T07:41:08;9.32;;;5.53;;
18997;SDS011;9632;51.018;4.284;2022-07-23T07:43:35;9.40;;;5.43;;
18997;SDS011;9632;51.018;4.284;2022-07-23T07:46:02;9.00;;;5.45;;
18997;SDS011;9632;51.018;4.284;2022-07-23T07:48:28;9.10;;;5.07;;
18997;SDS011;9632;51.018;4.284;2022-07-23T07:50:54;10.25;;;5.80;;
18997;SDS011;9632;51.018;4.284;2022-07-23T07:53:20;10.13;;;5.30;;
18997;SDS011;9632;51.018;4.284;2022-07-23T07:55:46;9.05;;;5.35;;
18997;SDS011;9632;51.018;4.284;2022-07-23T07:58:11;7.50;;;5.22;;
18997;SDS011;9632;51.018;4.284;2022-07-23T08:00:37;11.73;;;5.38;;
18997;SDS011;9632;51.018;4.284;2022-07-23T08:03:03;10.85;;;5.90;;
18997;SDS011;9632;51.018;4.284;2022-07-23T08:05:30;7.28;;;5.00;;
18997;SDS011;9632;51.018;4.284;2022-07-23T08:07:56;9.82;;;5.75;;
18997;SDS011;9632;51.018;4.284;2022-07-23T08:10:23;8.27;;;4.78;;
18997;SDS011;9632;51.018;4.284;2022-07-23T08:12:55;8.10;;;4.93;;
18997;SDS011;9632;51.018;4.284;2022-07-23T08:15:25;12.38;;;6.40;;
18997;SDS011;9632;51.018;4.284;2022-07-23T08:17:52;10.20;;;5.47;;
18997;SDS011;9632;51.018;4.284;2022-07-23T08:20:19;12.82;;;5.40;;
18997;SDS011;9632;51.018;4.284;2022-07-23T08:27:50;6.70;;;4.78;;
18997;SDS011;9632;51.018;4.284;2022-07-23T08:30:16;9.63;;;4.78;;
18997;SDS011;9632;51.018;4.284;2022-07-23T08:32:49;12.57;;;6.45;;
18997;SDS011;9632;51.018;4.284;2022-07-23T08:35:15;10.15;;;5.30;;
18997;SDS011;9632;51.018;4.284;2022-07-23T08:37:41;9.45;;;4.40;;
18997;SDS011;9632;51.018;4.284;2022-07-23T08:40:07;9.23;;;4.78;;
18997;SDS011;9632;51.018;4.284;2022-07-23T08:42:33;7.88;;;4.60;;
18997;SDS011;9632;51.018;4.284;2022-07-23T08:45:03;5.90;;;3.55;;
18997;SDS011;9632;51.018;4.284;2022-07-23T08:47:31;6.68;;;4.30;;
18997;SDS011;9632;51.018;4.284;2022-07-23T08:49:57;9.68;;;4.88;;
18997;SDS011;9632;51.018;4.284;2022-07-23T08:52:24;7.07;;;4.18;;
18997;SDS011;9632;51.018;4.284;2022-07-23T08:54:50;6.30;;;3.80;;
18997;SDS011;9632;51.018;4.284;2022-07-23T08:57:17;5.03;;;3.58;;
18997;SDS011;9632;51.018;4.284;2022-07-23T08:59:43;7.65;;;3.60;;
18997;SDS011;9632;51.018;4.284;2022-07-23T09:02:09;7.45;;;3.33;;
18997;SDS011;9632;51.018;4.284;2022-07-23T09:04:34;5.97;;;3.67;;
18997;SDS011;9632;51.018;4.284;2022-07-23T09:07:01;8.40;;;4.50;;
18997;SDS011;9632;51.018;4.284;2022-07-23T09:09:27;7.53;;;4.35;;
18997;SDS011;9632;51.018;4.284;2022-07-23T09:12:04;7.68;;;3.50;;
18997;SDS011;9632;51.018;4.284;2022-07-23T09:14:38;5.93;;;3.22;;
18997;SDS011;9632;51.018;4.284;2022-07-23T09:17:14;7.00;;;3.10;;
18997;SDS011;9632;51.018;4.284;2022-07-23T09:19:42;7.93;;;3.55;;
18997;SDS011;9632;51.018;4.284;2022-07-23T09:25:06;5.75;;;3.65;;
18997;SDS011;9632;51.018;4.284;2022-07-23T09:27:46;5.90;;;3.20;;
18997;SDS011;9632;51.018;4.284;2022-07-23T09:30:14;5.20;;;2.75;;
18997;SDS011;9632;51.018;4.284;2022-07-23T09:32:40;30.00;;;5.28;;
18997;SDS011;9632;51.018;4.284;2022-07-23T09:35:07;9.93;;;3.50;;
18997;SDS011;9632;51.018;4.284;2022-07-23T09:37:33;4.00;;;2.75;;
18997;SDS011;9632;51.018;4.284;2022-07-23T09:40:08;6.40;;;3.05;;
18997;SDS011;9632;51.018;4.284;2022-07-23T09:42:36;6.10;;;2.80;;
18997;SDS011;9632;51.018;4.284;2022-07-23T09:45:02;4.28;;;2.42;;
18997;SDS011;9632;51.018;4.284;2022-07-23T09:47:29;3.55;;;2.30;;
18997;SDS011;9632;51.018;4.284;2022-07-23T09:52:34;4.68;;;3.00;;
18997;SDS011;9632;51.018;4.284;2022-07-23T09:55:03;6.75;;;2.20;;
18997;SDS011;9632;51.018;4.284;2022-07-23T09:57:30;7.70;;;3.10;;
18997;SDS011;9632;51.018;4.284;2022-07-23T09:59:57;4.50;;;2.30;;
18997;SDS011;9632;51.018;4.284;2022-07-23T10:02:25;3.97;;;2.00;;
18997;SDS011;9632;51.018;4.284;2022-07-23T10:04:53;6.28;;;3.10;;
18997;SDS011;9632;51.018;4.284;2022-07-23T10:07:21;5.03;;;2.90;;
18997;SDS011;9632;51.018;4.284;2022-07-23T10:09:52;4.65;;;2.58;;
18997;SDS011;9632;51.018;4.284;2022-07-23T10:12:19;5.85;;;3.28;;
18997;SDS011;9632;51.018;4.284;2022-07-23T10:14:54;3.25;;;1.90;;
18997;SDS011;9632;51.018;4.284;2022-07-23T10:17:22;4.28;;;2.10;;
18997;SDS011;9632;51.018;4.284;2022-07-23T10:19:49;5.13;;;2.10;;
18997;SDS011;9632;51.018;4.284;2022-07-23T10:22:19;2.88;;;2.00;;
18997;SDS011;9632;51.018;4.284;2022-07-23T10:24:50;3.22;;;1.65;;
18997;SDS011;9632;51.018;4.284;2022-07-23T10:30:09;3.65;;;1.77;;
18997;SDS011;9632;51.018;4.284;2022-07-23T10:35:26;3.35;;;1.50;;
18997;SDS011;9632;51.018;4.284;2022-07-23T10:38:13;5.10;;;2.00;;
18997;SDS011;9632;51.018;4.284;2022-07-23T10:43:23;1.83;;;1.33;;
18997;SDS011;9632;51.018;4.284;2022-07-23T10:45:49;3.35;;;1.30;;
18997;SDS011;9632;51.018;4.284;2022-07-23T10:48:16;4.78;;;2.05;;
18997;SDS011;9632;51.018;4.284;2022-07-23T10:51:08;4.13;;;1.70;;
18997;SDS011;9632;51.018;4.284;2022-07-23T10:57:08;4.45;;;1.90;;
18997;SDS011;9632;51.018;4.284;2022-07-23T10:59:16;3.38;;;1.50;;
18997;SDS011;9632;51.018;4.284;2022-07-23T11:01:42;4.55;;;1.80;;
18997;SDS011;9632;51.018;4.284;2022-07-23T11:04:07;4.10;;;1.65;;
18997;SDS011;9632;51.018;4.284;2022-07-23T11:17:30;4.20;;;2.00;;
18997;SDS011;9632;51.018;4.284;2022-07-23T11:22:55;5.38;;;1.70;;
18997;SDS011;9632;51.018;4.284;2022-07-23T11:27:53;3.05;;;1.88;;
18997;SDS011;9632;51.018;4.284;2022-07-23T11:35:41;5.78;;;1.67;;
18997;SDS011;9632;51.018;4.284;2022-07-23T11:38:18;3.20;;;1.50;;
18997;SDS011;9632;51.018;4.284;2022-07-23T11:40:51;4.38;;;1.40;;
18997;SDS011;9632;51.018;4.284;2022-07-23T11:43:19;3.58;;;1.70;;
18997;SDS011;9632;51.018;4.284;2022-07-23T11:45:51;1.73;;;1.10;;
18997;SDS011;9632;51.018;4.284;2022-07-23T11:48:22;3.42;;;1.17;;
18997;SDS011;9632;51.018;4.284;2022-07-23T11:50:49;2.60;;;1.30;;
18997;SDS011;9632;51.018;4.284;2022-07-23T11:53:23;3.05;;;1.42;;
18997;SDS011;9632;51.018;4.284;2022-07-23T11:55:53;4.90;;;1.67;;
18997;SDS011;9632;51.018;4.284;2022-07-23T11:58:20;2.38;;;1.30;;
18997;SDS011;9632;51.018;4.284;2022-07-23T12:00:45;4.20;;;1.48;;
18997;SDS011;9632;51.018;4.284;2022-07-23T12:03:11;2.75;;;1.20;;
18997;SDS011;9632;51.018;4.284;2022-07-23T12:05:37;3.40;;;1.40;;
18997;SDS011;9632;51.018;4.284;2022-07-23T12:08:04;3.45;;;1.25;;
18997;SDS011;9632;51.018;4.284;2022-07-23T12:10:39;2.25;;;1.30;;
18997;SDS011;9632;51.018;4.284;2022-07-23T12:13:08;1.90;;;1.40;;
18997;SDS011;9632;51.018;4.284;2022-07-23T12:15:38;1.40;;;1.00;;
18997;SDS011;9632;51.018;4.284;2022-07-23T12:18:07;2.20;;;1.30;;
18997;SDS011;9632;51.018;4.284;2022-07-23T12:20:39;1.67;;;1.00;;
18997;SDS011;9632;51.018;4.284;2022-07-23T12:23:08;2.00;;;1.00;;
18997;SDS011;9632;51.018;4.284;2022-07-23T12:25:35;1.80;;;1.10;;
18997;SDS011;9632;51.018;4.284;2022-07-23T12:30:40;3.15;;;1.48;;
18997;SDS011;9632;51.018;4.284;2022-07-23T12:33:11;1.65;;;1.15;;
18997;SDS011;9632;51.018;4.284;2022-07-23T12:35:42;3.92;;;1.45;;
18997;SDS011;9632;51.018;4.284;2022-07-23T12:38:11;1.92;;;1.30;;
18997;SDS011;9632;51.018;4.284;2022-07-23T12:40:42;1.35;;;1.13;;
18997;SDS011;9632;51.018;4.284;2022-07-23T12:43:10;2.42;;;1.45;;
18997;SDS011;9632;51.018;4.284;2022-07-23T12:48:26;2.08;;;1.20;;
18997;SDS011;9632;51.018;4.284;2022-07-23T12:50:58;3.25;;;1.30;;
18997;SDS011;9632;51.018;4.284;2022-07-23T12:55:56;1.98;;;1.20;;
18997;SDS011;9632;51.018;4.284;2022-07-23T13:01:07;1.60;;;1.40;;
18997;SDS011;9632;51.018;4.284;2022-07-23T13:03:41;2.35;;;1.25;;
18997;SDS011;9632;51.018;4.284;2022-07-23T13:06:09;2.25;;;1.33;;
18997;SDS011;9632;51.018;4.284;2022-07-23T13:08:36;2.03;;;1.40;;
18997;SDS011;9632;51.018;4.284;2022-07-23T13:11:03;1.90;;;1.25;;
18997;SDS011;9632;51.018;4.284;2022-07-23T13:13:30;2.22;;;1.30;;
18997;SDS011;9632;51.018;4.284;2022-07-23T13:15:58;2.30;;;1.40;;
18997;SDS011;9632;51.018;4.284;2022-07-23T13:18:24;4.03;;;1.58;;
18997;SDS011;9632;51.018;4.284;2022-07-23T13:20:50;2.38;;;1.48;;
18997;SDS011;9632;51.018;4.284;2022-07-23T13:23:16;2.17;;;1.33;;
18997;SDS011;9632;51.018;4.284;2022-07-23T13:25:44;3.17;;;1.45;;
18997;SDS011;9632;51.018;4.284;2022-07-23T13:28:11;3.88;;;1.55;;
18997;SDS011;9632;51.018;4.284;2022-07-23T13:30:38;3.25;;;1.65;;
18997;SDS011;9632;51.018;4.284;2022-07-23T13:33:04;3.47;;;1.52;;
18997;SDS011;9632;51.018;4.284;2022-07-23T13:35:30;2.83;;;1.55;;
18997;SDS011;9632;51.018;4.284;2022-07-23T13:37:56;3.78;;;1.88;;
18997;SDS011;9632;51.018;4.284;2022-07-23T13:40:22;2.85;;;1.73;;
18997;SDS011;9632;51.018;4.284;2022-07-23T13:42:48;3.50;;;1.80;;
18997;SDS011;9632;51.018;4.284;2022-07-23T13:45:13;2.92;;;1.70;;
18997;SDS011;9632;51.018;4.284;2022-07-23T13:47:39;2.80;;;1.83;;
18997;SDS011;9632;51.018;4.284;2022-07-23T13:50:05;2.72;;;1.80;;
18997;SDS011;9632;51.018;4.284;2022-07-23T13:52:31;3.13;;;2.00;;
18997;SDS011;9632;51.018;4.284;2022-07-23T13:54:59;4.13;;;2.00;;
18997;SDS011;9632;51.018;4.284;2022-07-23T13:57:29;3.90;;;1.90;;
18997;SDS011;9632;51.018;4.284;2022-07-23T13:59:56;5.78;;;2.35;;
18997;SDS011;9632;51.018;4.284;2022-07-23T14:02:21;4.35;;;1.95;;
18997;SDS011;9632;51.018;4.284;2022-07-23T14:04:47;3.85;;;1.80;;
18997;SDS011;9632;51.018;4.284;2022-07-23T14:07:13;3.03;;;1.63;;
18997;SDS011;9632;51.018;4.284;2022-07-23T14:09:39;4.18;;;2.10;;
18997;SDS011;9632;51.018;4.284;2022-07-23T14:12:04;3.85;;;2.20;;
18997;SDS011;9632;51.018;4.284;2022-07-23T14:14:30;3.65;;;1.90;;
18997;SDS011;9632;51.018;4.284;2022-07-23T14:16:56;3.15;;;2.00;;
18997;SDS011;9632;51.018;4.284;2022-07-23T14:19:22;3.13;;;1.90;;
18997;SDS011;9632;51.018;4.284;2022-07-23T14:21:48;3.97;;;2.10;;
18997;SDS011;9632;51.018;4.284;2022-07-23T14:24:14;4.85;;;2.17;;
18997;SDS011;9632;51.018;4.284;2022-07-23T14:26:40;3.63;;;2.33;;
18997;SDS011;9632;51.018;4.284;2022-07-23T14:29:06;3.75;;;2.15;;
18997;SDS011;9632;51.018;4.284;2022-07-23T14:31:33;3.15;;;2.20;;
18997;SDS011;9632;51.018;4.284;2022-07-23T14:33:58;4.28;;;2.28;;
18997;SDS011;9632;51.018;4.284;2022-07-23T14:36:24;3.50;;;2.00;;
18997;SDS011;9632;51.018;4.284;2022-07-23T14:38:50;3.72;;;2.10;;
18997;SDS011;9632;51.018;4.284;2022-07-23T14:41:16;3.15;;;2.05;;
18997;SDS011;9632;51.018;4.284;2022-07-23T14:43:42;3.80;;;2.08;;
18997;SDS011;9632;51.018;4.284;2022-07-23T14:46:08;3.85;;;2.10;;
18997;SDS011;9632;51.018;4.284;2022-07-23T14:48:34;4.60;;;2.42;;
18997;SDS011;9632;51.018;4.284;2022-07-23T14:50:59;3.80;;;1.83;;
18997;SDS011;9632;51.018;4.284;2022-07-23T14:53:25;4.55;;;2.40;;
18997;SDS011;9632;51.018;4.284;2022-07-23T14:55:51;2.28;;;2.08;;
18997;SDS011;9632;51.018;4.284;2022-07-23T14:58:16;4.15;;;2.30;;
18997;SDS011;9632;51.018;4.284;2022-07-23T15:00:42;2.85;;;2.15;;
18997;SDS011;9632;51.018;4.284;2022-07-23T15:03:08;3.33;;;2.35;;
18997;SDS011;9632;51.018;4.284;2022-07-23T15:05:34;2.80;;;2.22;;
18997;SDS011;9632;51.018;4.284;2022-07-23T15:07:59;4.70;;;2.50;;
18997;SDS011;9632;51.018;4.284;2022-07-23T15:10:25;3.03;;;2.20;;
18997;SDS011;9632;51.018;4.284;2022-07-23T15:12:51;3.50;;;2.10;;
18997;SDS011;9632;51.018;4.284;2022-07-23T15:15:16;3.85;;;2.00;;
18997;SDS011;9632;51.018;4.284;2022-07-23T15:17:42;5.00;;;2.30;;
18997;SDS011;9632;51.018;4.284;2022-07-23T15:20:09;3.53;;;2.20;;
18997;SDS011;9632;51.018;4.284;2022-07-23T15:22:34;5.50;;;2.30;;
18997;SDS011;9632;51.018;4.284;2022-07-23T15:25:00;3.67;;;2.38;;
18997;SDS011;9632;51.018;4.284;2022-07-23T15:27:26;4.65;;;2.47;;
18997;SDS011;9632;51.018;4.284;2022-07-23T15:29:52;3.13;;;2.47;;
18997;SDS011;9632;51.018;4.284;2022-07-23T15:32:18;4.28;;;2.70;;
18997;SDS011;9632;51.018;4.284;2022-07-23T15:34:44;4.20;;;2.40;;
18997;SDS011;9632;51.018;4.284;2022-07-23T15:37:09;4.00;;;2.05;;
18997;SDS011;9632;51.018;4.284;2022-07-23T15:39:35;3.08;;;2.28;;
18997;SDS011;9632;51.018;4.284;2022-07-23T15:42:01;3.55;;;2.45;;
18997;SDS011;9632;51.018;4.284;2022-07-23T15:44:27;3.92;;;2.47;;
18997;SDS011;9632;51.018;4.284;2022-07-23T15:46:53;4.30;;;2.50;;
18997;SDS011;9632;51.018;4.284;2022-07-23T15:49:20;3.60;;;2.40;;
18997;SDS011;9632;51.018;4.284;2022-07-23T15:51:46;4.47;;;2.70;;